Time;durP1;ratioP1;P1;durP2;ratioP2;P2;SDS_P1;SDS_P2;PMS_P1;PMS_P2;Temp;Humidity;BMP_temperature;BMP_pressure;BME280_temperature;BME280_humidity;BME280_pressure;Samples;Min_cycle;Max_cycle;Signal;HPM_P1;HPM_P2
2023/09/02 00:00:43;;;;;;;8.30;5.70;;;;;;;16.53;100.00;101444.26;110136;1237;71715;-72
2023/09/02 00:03:34;;;;;;;10.40;6.00;;;;;;;16.71;100.00;101441.19;110130;1238;61359;-73
2023/09/02 00:06:03;;;;;;;8.40;6.00;;;;;;;16.62;100.00;101441.55;110071;1238;73625;-72
2023/09/02 00:08:33;;;;;;;10.80;7.00;;;;;;;16.73;100.00;101442.98;110103;1239;63460;-74
2023/09/02 00:11:01;;;;;;;9.60;5.90;;;;;;;16.92;100.00;101441.44;110084;1238;60758;-72
2023/09/02 00:13:30;;;;;;;11.70;6.20;;;;;;;17.06;100.00;101443.79;110021;1238;63480;-72
2023/09/02 00:15:59;;;;;;;13.40;6.40;;;;;;;17.09;100.00;101448.71;110015;1241;61674;-72
2023/09/02 00:18:29;;;;;;;9.80;6.10;;;;;;;16.97;100.00;101448.23;109944;1238;68721;-72
2023/09/02 00:20:57;;;;;;;9.60;5.90;;;;;;;16.94;100.00;101448.15;110001;1238;63778;-72
2023/09/02 00:23:26;;;;;;;9.50;6.00;;;;;;;16.91;100.00;101446.11;109857;1241;58290;-72
2023/09/02 00:25:56;;;;;;;9.30;6.10;;;;;;;16.85;100.00;101441.77;109966;1238;60893;-72
2023/09/02 00:28:24;;;;;;;9.10;6.50;;;;;;;16.74;100.00;101440.91;109845;1238;73367;-72
2023/09/02 00:30:53;;;;;;;9.10;6.00;;;;;;;16.75;100.00;101443.65;109858;1238;72450;-72
2023/09/02 00:33:22;;;;;;;9.90;6.80;;;;;;;16.62;100.00;101444.36;109777;1238;70882;-72
2023/09/02 00:35:51;;;;;;;13.30;6.80;;;;;;;16.54;100.00;101444.90;109886;1238;62933;-71
2023/09/02 00:38:20;;;;;;;8.60;6.20;;;;;;;16.44;100.00;101446.30;109986;1241;58287;-72
2023/09/02 00:40:57;;;;;;;10.70;6.30;;;;;;;16.35;100.00;101448.50;109986;1238;59801;-71
2023/09/02 00:43:28;;;;;;;14.00;6.50;;;;;;;16.22;100.00;101450.95;109802;1238;64526;-71
2023/09/02 00:45:58;;;;;;;9.80;6.00;;;;;;;16.12;100.00;101449.23;109789;1238;60755;-72
2023/09/02 00:48:27;;;;;;;9.90;6.20;;;;;;;15.97;100.00;101449.73;110037;1238;58977;-71
2023/09/02 00:50:56;;;;;;;9.10;6.50;;;;;;;15.81;100.00;101450.00;109923;1238;73811;-72
2023/09/02 00:53:25;;;;;;;8.90;6.50;;;;;;;15.74;100.00;101449.77;109826;1242;63099;-72
2023/09/02 00:55:54;;;;;;;10.50;6.40;;;;;;;15.81;100.00;101450.69;110065;1238;61585;-72
2023/09/02 00:58:24;;;;;;;11.60;6.30;;;;;;;15.82;100.00;101451.00;109932;1242;63375;-71
2023/09/02 01:00:53;;;;;;;9.60;6.70;;;;;;;15.75;100.00;101451.05;110050;1241;61689;-72
2023/09/02 01:03:22;;;;;;;8.40;6.10;;;;;;;15.66;100.00;101451.40;110140;1239;59976;-72
2023/09/02 01:05:51;;;;;;;10.80;7.00;;;;;;;15.55;100.00;101453.34;110029;1241;71184;-70
2023/09/02 01:08:20;;;;;;;9.00;6.80;;;;;;;15.47;100.00;101452.63;110028;1238;61866;-73
2023/09/02 01:10:50;;;;;;;13.30;6.70;;;;;;;15.35;100.00;101447.09;109793;1238;57831;-73
2023/09/02 01:13:19;;;;;;;10.60;6.50;;;;;;;15.34;100.00;101446.61;109919;1242;63396;-74
2023/09/02 01:15:48;;;;;;;9.20;6.80;;;;;;;15.44;100.00;101449.03;110129;1238;71034;-72
2023/09/02 01:18:16;;;;;;;9.60;7.10;;;;;;;15.55;100.00;101448.27;110033;1238;71027;-73
2023/09/02 01:21:11;;;;;;;9.40;6.40;;;;;;;15.64;100.00;101449.13;110100;1237;63730;-73
2023/09/02 01:23:45;;;;;;;9.80;6.60;;;;;;;15.53;100.00;101448.23;109716;1241;63223;-73
2023/09/02 01:26:46;;;;;;;13.60;7.00;;;;;;;15.48;100.00;101450.05;110111;1237;60752;-73
2023/09/02 01:29:20;;;;;;;9.00;6.60;;;;;;;15.54;100.00;101449.88;110038;1237;74750;-73
2023/09/02 01:31:52;;;;;;;9.60;6.20;;;;;;;15.48;100.00;101451.31;110048;1237;62342;-74
2023/09/02 01:34:23;;;;;;;10.40;7.00;;;;;;;15.34;100.00;101458.17;109897;1238;69610;-73
2023/09/02 01:36:53;;;;;;;8.10;6.60;;;;;;;15.28;100.00;101461.83;109773;1237;62126;-74
2023/09/02 01:39:22;;;;;;;11.80;6.50;;;;;;;15.19;100.00;101464.33;109870;1242;62152;-73
2023/09/02 01:41:52;;;;;;;12.20;7.40;;;;;;;15.26;100.00;101460.58;109983;1238;61565;-74
2023/09/02 01:44:22;;;;;;;11.50;6.60;;;;;;;15.50;100.00;101456.71;109892;1238;65259;-74
2023/09/02 01:46:55;;;;;;;10.60;6.80;;;;;;;15.44;100.00;101458.81;109755;1238;72052;-74
2023/09/02 01:49:25;;;;;;;10.20;6.60;;;;;;;15.36;100.00;101454.89;110086;1239;59365;-73
2023/09/02 01:51:55;;;;;;;9.90;7.30;;;;;;;15.30;100.00;101455.89;109975;1237;73818;-72
2023/09/02 01:54:25;;;;;;;11.80;6.70;;;;;;;15.43;100.00;101451.86;110041;1238;58337;-73
2023/09/02 01:56:55;;;;;;;10.80;6.50;;;;;;;15.42;100.00;101438.60;109941;1241;57911;-73
2023/09/02 01:59:24;;;;;;;9.50;6.50;;;;;;;15.43;100.00;101441.86;110012;1238;73638;-73
2023/09/02 02:01:52;;;;;;;9.70;6.30;;;;;;;15.51;100.00;101452.07;110026;1238;62505;-73
2023/09/02 02:04:44;;;;;;;9.20;6.20;;;;;;;15.37;100.00;101449.69;110026;1241;59226;-73
2023/09/02 02:07:14;;;;;;;11.80;6.40;;;;;;;15.19;100.00;101451.17;109866;1242;63239;-72
2023/09/02 02:09:50;;;;;;;9.40;6.70;;;;;;;15.11;100.00;101455.52;110040;1241;58612;-72
2023/09/02 02:12:20;;;;;;;9.60;6.90;;;;;;;15.14;100.00;101461.23;109988;1241;57941;-72
2023/09/02 02:14:49;;;;;;;9.00;6.50;;;;;;;15.12;100.00;101462.77;110011;1240;63731;-73
2023/09/02 02:17:18;;;;;;;8.90;6.50;;;;;;;15.18;100.00;101460.27;110031;1241;60718;-72
2023/09/02 02:19:47;;;;;;;8.70;6.20;;;;;;;15.06;100.00;101461.11;110000;1239;68497;-72
2023/09/02 02:22:16;;;;;;;9.10;6.50;;;;;;;14.96;100.00;101460.91;110116;1239;63753;-74
2023/09/02 02:24:45;;;;;;;10.80;7.10;;;;;;;14.96;100.00;101458.09;110061;1240;58349;-72
2023/09/02 02:27:14;;;;;;;9.90;7.00;;;;;;;15.41;100.00;101456.27;109833;1238;60480;-75
2023/09/02 02:29:42;;;;;;;12.50;6.30;;;;;;;15.28;100.00;101456.74;110154;1237;74847;-76
2023/09/02 02:32:14;;;;;;;10.20;7.00;;;;;;;15.30;100.00;101456.58;110086;1238;62561;-75
2023/09/02 02:34:44;;;;;;;9.80;7.50;;;;;;;15.54;100.00;101453.48;110033;1241;59966;-76
2023/09/02 02:37:13;;;;;;;10.80;7.20;;;;;;;15.69;100.00;101455.97;110076;1238;73064;-76
2023/09/02 02:39:41;;;;;;;8.80;6.80;;;;;;;15.57;100.00;101458.64;109915;1241;63187;-77
2023/09/02 02:42:10;;;;;;;8.90;6.70;;;;;;;15.42;100.00;101454.08;110067;1241;58448;-73
2023/09/02 02:44:39;;;;;;;9.90;6.20;;;;;;;15.29;100.00;101450.17;110030;1238;63600;-73
2023/09/02 02:47:08;;;;;;;9.00;6.30;;;;;;;15.19;100.00;101454.16;110011;1238;61461;-73
2023/09/02 02:49:37;;;;;;;8.80;6.70;;;;;;;15.07;100.00;101450.77;110054;1238;70220;-72
2023/09/02 02:52:06;;;;;;;11.20;7.00;;;;;;;14.92;100.00;101451.73;110029;1237;73391;-73
2023/09/02 02:54:37;;;;;;;9.90;7.10;;;;;;;14.78;100.00;101451.77;110022;1238;61050;-72
2023/09/02 02:57:06;;;;;;;10.60;7.00;;;;;;;14.64;100.00;101453.30;109987;1238;61006;-72
2023/09/02 02:59:35;;;;;;;12.50;7.20;;;;;;;14.55;100.00;101454.86;110019;1241;64325;-73
2023/09/02 03:02:04;;;;;;;8.80;6.70;;;;;;;14.57;100.00;101456.11;110109;1239;60770;-73
2023/09/02 03:04:33;;;;;;;10.10;7.10;;;;;;;14.59;100.00;101453.11;110002;1238;69724;-73
2023/09/02 03:07:02;;;;;;;10.60;7.10;;;;;;;14.58;100.00;101450.38;109923;1237;72512;-72
2023/09/02 03:09:31;;;;;;;9.10;7.70;;;;;;;14.54;100.00;101450.99;109820;1240;58307;-71
2023/09/02 03:12:00;;;;;;;11.30;7.10;;;;;;;14.65;100.00;101455.66;109847;1237;58342;-70
2023/09/02 03:14:29;;;;;;;9.60;6.60;;;;;;;14.63;100.00;101459.84;109869;1238;74390;-70
2023/09/02 03:16:58;;;;;;;10.40;7.90;;;;;;;14.53;100.00;101467.60;109814;1237;72419;-70
2023/09/02 03:19:27;;;;;;;10.70;7.50;;;;;;;14.41;100.00;101464.81;109697;1242;59731;-71
2023/09/02 03:21:56;;;;;;;10.50;8.20;;;;;;;14.38;100.00;101463.98;109675;1242;62451;-70
2023/09/02 03:24:25;;;;;;;12.20;8.30;;;;;;;14.43;100.00;101465.75;109987;1239;58265;-71
2023/09/02 03:26:54;;;;;;;10.60;7.40;;;;;;;14.46;100.00;101459.38;109885;1240;58272;-72
2023/09/02 03:29:23;;;;;;;10.30;7.00;;;;;;;14.47;100.00;101458.39;109820;1241;74416;-71
2023/09/02 03:31:53;;;;;;;11.10;8.00;;;;;;;14.43;100.00;101456.62;109849;1237;72082;-70
2023/09/02 03:34:22;;;;;;;11.50;7.80;;;;;;;14.45;100.00;101453.25;110001;1238;70664;-73
2023/09/02 03:36:50;;;;;;;10.70;7.50;;;;;;;14.52;100.00;101450.13;110033;1237;73560;-73
2023/09/02 03:39:19;;;;;;;13.50;8.00;;;;;;;14.64;100.00;101454.52;110048;1239;57806;-72
2023/09/02 03:41:48;;;;;;;11.70;7.80;;;;;;;14.67;100.00;101453.02;110002;1238;58252;-72
2023/09/02 03:44:16;;;;;;;10.60;7.70;;;;;;;14.80;100.00;101451.77;109974;1237;74272;-72
2023/09/02 03:46:45;;;;;;;13.70;7.40;;;;;;;14.78;100.00;101452.89;110017;1238;63223;-74
2023/09/02 03:49:14;;;;;;;10.00;8.10;;;;;;;14.70;100.00;101453.66;110020;1238;59774;-72
2023/09/02 03:51:43;;;;;;;11.10;7.80;;;;;;;14.75;100.00;101449.92;110013;1238;63628;-71
2023/09/02 03:54:13;;;;;;;9.00;7.30;;;;;;;14.70;100.00;101451.01;109994;1238;58318;-73
2023/09/02 03:56:42;;;;;;;12.10;8.10;;;;;;;14.64;100.00;101459.23;110004;1241;60400;-72
2023/09/02 03:59:10;;;;;;;12.40;8.10;;;;;;;14.70;100.00;101464.52;109901;1238;75186;-73
2023/09/02 04:01:40;;;;;;;11.80;8.10;;;;;;;14.80;100.00;101467.23;110019;1238;71891;-74
2023/09/02 04:04:08;;;;;;;13.00;8.30;;;;;;;14.79;100.00;101465.02;109971;1238;70984;-74
2023/09/02 04:06:39;;;;;;;10.20;7.50;;;;;;;14.76;100.00;101469.88;109963;1238;73608;-72
2023/09/02 04:09:08;;;;;;;11.00;8.10;;;;;;;14.74;100.00;101470.52;110002;1238;63132;-71
2023/09/02 04:11:36;;;;;;;10.90;8.80;;;;;;;14.86;100.00;101472.86;110110;1239;60856;-71
2023/09/02 04:14:05;;;;;;;11.50;8.70;;;;;;;14.91;100.00;101474.79;109982;1237;65436;-72
2023/09/02 04:16:34;;;;;;;11.20;8.60;;;;;;;15.12;100.00;101479.29;110055;1237;61757;-73
2023/09/02 04:19:04;;;;;;;12.10;8.50;;;;;;;15.39;100.00;101480.49;109993;1237;60161;-73
2023/09/02 04:21:33;;;;;;;15.40;10.70;;;;;;;15.41;100.00;101480.46;110068;1238;73818;-73
2023/09/02 04:24:01;;;;;;;12.60;9.20;;;;;;;15.46;100.00;101478.71;109804;1241;62262;-73
2023/09/02 04:26:31;;;;;;;10.40;8.60;;;;;;;15.49;100.00;101478.98;109990;1238;57889;-73
2023/09/02 04:29:00;;;;;;;11.30;8.10;;;;;;;15.40;100.00;101481.41;109880;1237;63309;-73
2023/09/02 04:31:29;;;;;;;12.20;8.40;;;;;;;15.31;100.00;101481.59;109967;1238;61418;-72
2023/09/02 04:33:58;;;;;;;13.80;8.60;;;;;;;15.24;100.00;101482.33;109903;1238;70273;-71
2023/09/02 04:36:29;;;;;;;11.70;8.60;;;;;;;15.36;100.00;101484.59;110013;1239;74313;-71
2023/09/02 04:38:58;;;;;;;12.20;8.70;;;;;;;15.49;100.00;101483.84;109996;1239;62261;-71
2023/09/02 04:41:27;;;;;;;12.20;8.80;;;;;;;15.52;100.00;101479.58;110039;1237;57764;-71
2023/09/02 04:43:57;;;;;;;11.10;8.90;;;;;;;15.50;100.00;101480.83;110104;1237;74194;-71
2023/09/02 04:46:26;;;;;;;11.20;8.70;;;;;;;15.46;100.00;101480.80;110043;1237;62838;-68
2023/09/02 04:48:55;;;;;;;12.50;8.60;;;;;;;15.55;100.00;101476.71;110045;1237;59782;-68
2023/09/02 04:51:24;;;;;;;12.20;9.10;;;;;;;15.68;100.00;101473.16;110040;1238;63275;-76
2023/09/02 04:53:53;;;;;;;14.90;9.30;;;;;;;15.89;100.00;101475.84;109988;1241;57769;-77
2023/09/02 04:56:23;;;;;;;16.10;10.90;;;;;;;16.10;100.00;101475.73;109924;1238;58223;-75
2023/09/02 04:58:52;;;;;;;16.70;9.80;;;;;;;16.16;100.00;101478.57;109933;1237;63837;-76
2023/09/02 05:01:23;;;;;;;16.70;10.10;;;;;;;16.26;100.00;101484.36;110045;1237;71187;-74
2023/09/02 05:03:56;;;;;;;17.50;10.00;;;;;;;16.57;100.00;101487.71;110009;1238;70694;-77
2023/09/02 05:06:24;;;;;;;15.80;9.20;;;;;;;16.82;100.00;101484.21;109963;1239;74267;-78
2023/09/02 05:08:55;;;;;;;17.60;10.00;;;;;;;17.03;100.00;101484.65;109513;1238;361517;-77
2023/09/02 05:11:28;;;;;;;16.20;9.70;;;;;;;17.24;100.00;101483.17;109903;1242;60594;-75
2023/09/02 05:13:58;;;;;;;17.60;9.80;;;;;;;17.44;100.00;101485.46;110013;1237;63310;-75
2023/09/02 05:16:27;;;;;;;19.20;9.40;;;;;;;17.48;100.00;101476.95;110031;1238;72062;-77
2023/09/02 05:18:56;;;;;;;19.50;10.50;;;;;;;17.56;100.00;101476.58;110070;1237;59852;-78
2023/09/02 05:21:26;;;;;;;16.90;10.10;;;;;;;17.71;100.00;101483.89;110121;1238;63152;-77
2023/09/02 05:23:56;;;;;;;15.10;9.80;;;;;;;17.75;100.00;101486.20;109931;1240;62166;-80
2023/09/02 05:26:24;;;;;;;15.40;9.80;;;;;;;17.80;100.00;101479.77;109961;1237;59748;-76
2023/09/02 05:28:53;;;;;;;14.90;9.10;;;;;;;17.86;100.00;101476.52;109898;1237;63729;-77
2023/09/02 05:31:22;;;;;;;17.90;10.00;;;;;;;17.93;100.00;101474.16;109889;1237;60751;-77
2023/09/02 05:34:10;;;;;;;14.90;9.30;;;;;;;18.01;100.00;101472.90;110019;1237;59392;-76
2023/09/02 05:36:38;;;;;;;14.90;8.60;;;;;;;18.16;100.00;101473.33;109954;1237;74272;-74
2023/09/02 05:39:07;;;;;;;13.90;9.60;;;;;;;18.30;100.00;101473.44;110047;1238;58297;-76
2023/09/02 05:41:37;;;;;;;15.40;9.70;;;;;;;18.41;100.00;101475.34;109999;1237;58193;-75
2023/09/02 05:44:06;;;;;;;13.30;9.20;;;;;;;18.52;100.00;101477.86;110056;1237;74589;-75
2023/09/02 05:46:34;;;;;;;12.30;8.40;;;;;;;18.60;100.00;101478.57;109957;1237;73091;-76
2023/09/02 05:49:03;;;;;;;14.70;9.40;;;;;;;18.67;100.00;101479.81;110095;1238;59935;-77
2023/09/02 05:51:32;;;;;;;13.60;8.20;;;;;;;18.73;100.00;101477.95;109847;1237;63214;-76
2023/09/02 05:54:01;;;;;;;10.40;7.20;;;;;;;18.80;100.00;101480.72;110053;1239;62325;-74
2023/09/02 05:56:31;;;;;;;12.80;7.50;;;;;;;18.86;100.00;101481.03;110092;1237;61458;-76
2023/09/02 05:59:02;;;;;;;12.00;7.30;;;;;;;18.91;100.00;101482.30;110015;1238;63989;-78
2023/09/02 06:01:31;;;;;;;9.70;6.40;;;;;;;19.00;100.00;101481.42;109995;1237;70322;-79
2023/09/02 06:04:00;;;;;;;15.50;8.10;;;;;;;19.06;100.00;101486.15;109923;1237;60360;-76
2023/09/02 06:06:29;;;;;;;16.00;9.80;;;;;;;19.20;100.00;101488.16;110080;1237;73202;-75
2023/09/02 06:09:01;;;;;;;13.10;7.30;;;;;;;19.30;100.00;101484.70;110113;1238;58264;-75
2023/09/02 06:11:31;;;;;;;20.50;13.80;;;;;;;19.40;100.00;101484.64;110072;1238;60288;-74
2023/09/02 06:14:00;;;;;;;11.00;6.80;;;;;;;19.55;100.00;101484.06;110007;1237;76155;-75
2023/09/02 06:16:29;;;;;;;14.00;7.20;;;;;;;19.70;100.00;101483.30;110010;1237;72767;-76
2023/09/02 06:18:57;;;;;;;11.70;6.50;;;;;;;19.77;100.00;101479.20;110113;1237;60552;-76
2023/09/02 06:21:26;;;;;;;14.00;7.90;;;;;;;19.87;100.00;101481.91;110064;1237;62590;-75
2023/09/02 06:23:55;;;;;;;11.10;7.40;;;;;;;20.00;100.00;101484.17;110094;1239;61152;-77
2023/09/02 06:26:25;;;;;;;12.80;7.00;;;;;;;20.18;100.00;101485.77;109892;1237;61009;-76
2023/09/02 06:28:54;;;;;;;9.60;7.10;;;;;;;20.33;100.00;101479.77;110068;1237;64006;-78
2023/09/02 06:31:23;;;;;;;9.60;6.10;;;;;;;20.51;100.00;101480.28;110145;1238;72131;-81
2023/09/02 06:33:54;;;;;;;15.70;6.00;;;;;;;20.66;100.00;101480.73;110154;1237;59593;-76
2023/09/02 06:36:23;;;;;;;8.90;6.00;;;;;;;20.83;100.00;101479.67;110119;1238;72796;-75
2023/09/02 06:38:52;;;;;;;13.80;6.30;;;;;;;20.99;100.00;101479.44;109753;1241;61478;-74
2023/09/02 06:41:21;;;;;;;6.90;5.70;;;;;;;21.06;100.00;101481.83;109938;1237;58257;-76
2023/09/02 06:43:50;;;;;;;9.60;4.90;;;;;;;21.18;100.00;101484.77;109840;1238;62948;-76
2023/09/02 06:46:20;;;;;;;15.10;5.60;;;;;;;21.35;100.00;101486.03;109734;1238;61303;-77
2023/09/02 06:48:49;;;;;;;7.80;5.50;;;;;;;21.46;100.00;101479.75;110036;1238;60237;-75
2023/09/02 06:51:18;;;;;;;10.20;5.40;;;;;;;21.60;100.00;101479.27;110050;1238;62481;-75
2023/09/02 06:53:47;;;;;;;10.70;6.10;;;;;;;21.72;100.00;101479.13;109978;1238;58215;-75
2023/09/02 06:56:15;;;;;;;9.10;5.50;;;;;;;21.78;100.00;101481.28;109964;1237;59971;-76
2023/09/02 06:58:45;;;;;;;13.70;5.80;;;;;;;21.83;100.00;101482.88;110094;1237;64926;-76
2023/09/02 07:01:24;;;;;;;7.70;5.20;;;;;;;21.89;100.00;101483.64;109826;1237;71278;-76
2023/09/02 07:03:55;;;;;;;9.30;5.90;;;;;;;21.88;100.00;101484.45;109753;1238;71091;-75
2023/09/02 07:06:24;;;;;;;9.30;5.90;;;;;;;21.96;100.00;101483.98;109834;1238;63387;-76
2023/09/02 07:08:53;;;;;;;8.80;5.70;;;;;;;22.18;100.00;101478.70;110037;1237;61512;-67
2023/09/02 07:11:21;;;;;;;8.60;5.50;;;;;;;22.35;100.00;101477.25;110042;1237;62543;-66
2023/09/02 07:13:50;;;;;;;9.90;5.10;;;;;;;22.54;100.00;101483.94;110075;1238;65353;-67
2023/09/02 07:16:20;;;;;;;9.20;5.80;;;;;;;22.70;100.00;101486.61;110101;1238;62006;-66
2023/09/02 07:18:48;;;;;;;8.40;5.30;;;;;;;22.71;100.00;101487.98;110137;1237;70515;-66
2023/09/02 07:21:22;;;;;;;8.10;4.90;;;;;;;22.85;100.00;101489.23;110080;1239;74248;-67
2023/09/02 07:23:51;;;;;;;8.60;5.30;;;;;;;22.90;100.00;101490.09;110096;1239;58083;-67
2023/09/02 07:26:27;;;;;;;;;;;;;;;23.05;99.94;101487.17;109907;1237;60186;-67
2023/09/02 07:28:56;;;;;;;7.30;5.20;;;;;;;23.18;96.65;101483.11;110092;1237;64096;-69
2023/09/02 07:31:25;;;;;;;7.40;4.70;;;;;;;23.24;94.08;101483.64;110081;1238;71484;-67
2023/09/02 07:33:53;;;;;;;5.70;4.60;;;;;;;23.30;91.55;101489.45;110000;1238;70821;-63
2023/09/02 07:36:22;;;;;;;7.80;5.10;;;;;;;23.37;90.20;101491.77;109911;1238;63113;-65
2023/09/02 07:38:51;;;;;;;7.00;4.80;;;;;;;23.32;89.45;101485.97;110018;1240;58194;-65
2023/09/02 07:41:20;;;;;;;6.20;4.70;;;;;;;23.43;87.39;101484.73;110135;1238;59326;-66
2023/09/02 07:43:48;;;;;;;7.70;5.00;;;;;;;23.63;89.11;101481.78;110100;1237;74882;-65
2023/09/02 07:46:17;;;;;;;8.00;4.40;;;;;;;23.84;87.60;101484.14;109991;1237;61792;-66
2023/09/02 07:48:50;;;;;;;6.60;4.10;;;;;;;23.91;84.33;101484.02;110129;1237;59771;-65
2023/09/02 07:51:19;;;;;;;6.30;4.80;;;;;;;24.04;86.48;101486.40;110067;1239;62255;-67
2023/09/02 07:53:48;;;;;;;6.30;4.80;;;;;;;24.14;83.27;101484.52;109965;1240;59835;-66
2023/09/02 07:56:16;;;;;;;12.40;4.90;;;;;;;24.24;84.24;101486.02;109993;1237;62023;-66
2023/09/02 07:58:48;;;;;;;10.90;4.60;;;;;;;24.39;83.85;101485.79;110019;1239;63346;-66
2023/09/02 08:01:18;;;;;;;5.80;4.30;;;;;;;24.46;81.36;101482.28;109836;1237;60702;-68
2023/09/02 08:03:48;;;;;;;7.70;3.80;;;;;;;24.61;82.03;101480.73;109925;1238;59875;-68
2023/09/02 08:06:17;;;;;;;10.60;5.00;;;;;;;24.70;78.89;101483.89;109952;1238;63107;-67
2023/09/02 08:08:46;;;;;;;7.10;4.70;;;;;;;24.91;78.42;101483.09;109924;1238;58379;-72
2023/09/02 08:11:18;;;;;;;6.80;4.90;;;;;;;25.10;78.52;101484.14;109625;1238;58419;-72
2023/09/02 08:13:47;;;;;;;8.90;3.80;;;;;;;25.29;78.08;101487.23;109745;1238;62842;-69
2023/09/02 08:16:16;;;;;;;5.00;4.00;;;;;;;25.38;73.71;101484.83;109990;1238;71976;-70
2023/09/02 08:18:45;;;;;;;5.80;3.90;;;;;;;25.31;73.34;101486.61;109869;1241;59386;-70
2023/09/02 08:21:14;;;;;;;5.60;3.80;;;;;;;25.33;73.22;101483.30;109856;1238;73450;-67
2023/09/02 08:23:43;;;;;;;7.10;4.00;;;;;;;25.30;71.02;101481.93;109863;1238;61799;-67
2023/09/02 08:26:13;;;;;;;8.30;4.30;;;;;;;25.21;72.07;101478.27;109774;1238;57759;-67
2023/09/02 08:28:42;;;;;;;7.10;4.00;;;;;;;25.11;72.74;101481.36;109629;1238;74864;-67
2023/09/02 08:31:15;;;;;;;6.40;4.10;;;;;;;25.16;71.42;101480.10;110008;1238;63759;-67
2023/09/02 08:33:44;;;;;;;7.20;4.10;;;;;;;25.32;70.77;101477.72;109899;1239;60447;-66
2023/09/02 08:36:34;;;;;;;6.80;3.80;;;;;;;25.29;70.68;101479.34;109870;1238;64889;-66
2023/09/02 08:39:14;;;;;;;6.50;4.30;;;;;;;25.41;72.05;101479.47;109863;1238;60832;-69
2023/09/02 08:41:53;;;;;;;6.90;4.60;;;;;;;25.58;71.90;101477.02;109857;1238;58247;-69
2023/09/02 08:44:27;;;;;;;5.40;4.30;;;;;;;25.70;72.62;101475.23;109727;1241;64659;-69
2023/09/02 08:47:04;;;;;;;6.00;4.30;;;;;;;25.81;71.14;101472.42;109859;1237;62735;-69
2023/09/02 08:49:34;;;;;;;6.50;3.80;;;;;;;25.75;69.87;101472.03;109662;1241;60195;-68
2023/09/02 08:52:05;;;;;;;7.50;4.20;;;;;;;25.84;71.23;101466.78;109800;1239;74418;-68
2023/09/02 08:54:36;;;;;;;6.90;4.20;;;;;;;25.99;70.44;101468.14;109793;1238;57761;-69
2023/09/02 08:57:06;;;;;;;5.10;4.10;;;;;;;26.13;70.50;101468.34;109828;1237;61828;-67
2023/09/02 09:00:04;;;;;;;;;;;;;;;;;;;;;
2023/09/02 09:03:11;;;;;;;8.50;3.80;;;;;;;26.40;68.00;101468.07;109437;1240;71852;-67
2023/09/02 09:05:43;;;;;;;9.30;4.70;;;;;;;26.53;67.02;101467.47;109505;1240;69923;-67
2023/09/02 09:08:13;;;;;;;14.60;9.20;;;;;;;26.48;66.59;101466.90;109560;1240;73792;-68
2023/09/02 09:10:44;;;;;;;6.70;4.80;;;;;;;26.68;64.79;101471.09;109512;1241;57857;-69
2023/09/02 09:13:16;;;;;;;6.30;4.20;;;;;;;26.52;65.60;101472.64;109553;1242;57861;-69
2023/09/02 09:15:46;;;;;;;8.80;4.20;;;;;;;26.42;65.72;101470.34;109601;1241;64671;-68
2023/09/02 09:18:16;;;;;;;6.70;4.00;;;;;;;26.16;66.72;101470.95;109499;1241;71377;-67
2023/09/02 09:20:45;;;;;;;8.00;4.40;;;;;;;26.53;65.98;101468.73;109544;1242;59492;-67
2023/09/02 09:23:14;;;;;;;6.70;4.90;;;;;;;26.62;65.72;101464.67;109563;1240;73406;-68
2023/09/02 09:25:42;;;;;;;8.60;4.00;;;;;;;26.77;64.79;101463.34;109490;1243;61405;-67
2023/09/02 09:28:12;;;;;;;7.10;4.40;;;;;;;26.88;63.88;101460.45;109564;1242;58313;-69
2023/09/02 09:30:41;;;;;;;6.70;4.20;;;;;;;26.82;64.77;101457.09;109405;1245;63599;-70
2023/09/02 09:33:11;;;;;;;8.90;4.20;;;;;;;26.86;64.56;101456.45;109666;1237;63484;-70
2023/09/02 09:35:40;;;;;;;6.30;4.10;;;;;;;26.96;63.68;101455.34;109843;1239;60301;-69
2023/09/02 09:38:09;;;;;;;8.10;4.20;;;;;;;27.11;63.47;101449.05;109883;1239;63196;-68
2023/09/02 09:40:41;;;;;;;7.30;4.50;;;;;;;27.11;63.60;101445.34;109782;1238;58333;-69
2023/09/02 09:43:17;;;;;;;6.30;4.20;;;;;;;27.12;63.55;101443.02;109797;1239;57754;-69
2023/09/02 09:45:50;;;;;;;8.70;4.90;;;;;;;27.20;63.73;101433.73;110013;1238;63598;-68
2023/09/02 09:48:19;;;;;;;6.20;4.50;;;;;;;27.28;62.96;101431.31;109979;1238;61451;-69
2023/09/02 09:50:48;;;;;;;7.40;4.30;;;;;;;27.36;62.24;101430.95;110083;1238;59963;-69
2023/09/02 09:53:17;;;;;;;8.00;4.30;;;;;;;27.54;62.93;101427.46;110065;1238;72980;-69
2023/09/02 09:55:47;;;;;;;6.10;3.90;;;;;;;27.59;62.29;101424.04;110058;1239;58265;-67
2023/09/02 09:58:23;;;;;;;6.50;4.70;;;;;;;27.71;63.22;101422.47;109995;1238;60969;-68
2023/09/02 10:00:54;;;;;;;6.70;4.00;;;;;;;27.86;61.14;101423.54;110072;1238;74790;-69
2023/09/02 10:03:30;;;;;;;7.60;3.70;;;;;;;27.90;60.19;101420.08;110045;1238;62281;-68
2023/09/02 10:05:59;;;;;;;4.70;3.30;;;;;;;27.84;59.86;101421.76;109954;1238;59073;-67
2023/09/02 10:08:48;;;;;;;7.40;3.70;;;;;;;27.80;60.67;101420.23;109999;1238;73843;-67
2023/09/02 10:11:22;;;;;;;6.90;3.80;;;;;;;27.88;59.01;101421.52;109968;1238;57740;-70
2023/09/02 10:13:52;;;;;;;23.10;13.30;;;;;;;27.79;59.73;101423.23;109874;1238;57766;-68
2023/09/02 10:16:25;;;;;;;11.80;8.20;;;;;;;27.83;59.81;101425.78;109936;1237;64118;-70
2023/09/02 10:18:55;;;;;;;6.20;4.10;;;;;;;27.85;59.90;101422.09;109991;1238;62103;-69
2023/09/02 10:21:28;;;;;;;8.90;3.80;;;;;;;27.84;59.55;101418.98;110029;1237;70403;-68
2023/09/02 10:24:04;;;;;;;5.40;3.90;;;;;;;27.94;59.56;101413.83;109848;1238;74487;-67
2023/09/02 10:26:48;;;;;;;5.40;4.00;;;;;;;28.03;60.07;101410.67;109956;1237;58412;-69
2023/09/02 10:29:21;;;;;;;9.40;4.10;;;;;;;28.33;60.94;101413.48;109774;1238;58264;-68
2023/09/02 10:31:57;;;;;;;6.30;4.00;;;;;;;28.64;59.47;101415.85;110079;1238;63713;-67
2023/09/02 10:34:45;;;;;;;3.70;2.80;;;;;;;29.08;59.17;101415.38;110083;1237;71048;-68
2023/09/02 10:37:18;;;;;;;9.50;6.30;;;;;;;29.63;55.22;101415.50;109846;1239;70599;-70
2023/09/02 10:40:22;;;;;;;8.00;3.30;;;;;;;29.92;52.28;101415.75;110031;1238;74799;-67
2023/09/02 10:42:52;;;;;;;6.00;3.60;;;;;;;29.57;52.28;101417.35;109942;1238;61486;-67
2023/09/02 10:45:22;;;;;;;6.40;3.70;;;;;;;30.17;52.54;101415.41;109714;1238;58416;-68
2023/09/02 10:47:54;;;;;;;5.10;3.30;;;;;;;30.26;51.14;101410.18;109870;1238;73464;-69
2023/09/02 10:50:26;;;;;;;5.90;3.00;;;;;;;30.65;50.35;101404.41;109904;1238;62941;-67
2023/09/02 10:52:54;;;;;;;4.40;2.80;;;;;;;31.22;50.74;101407.88;109906;1238;70727;-67
2023/09/02 10:56:02;;;;;;;4.10;2.90;;;;;;;31.52;50.18;101404.16;109886;1238;63577;-69
2023/09/02 10:58:47;;;;;;;5.10;3.00;;;;;;;31.82;47.23;101401.05;109792;1237;58242;-68
2023/09/02 11:01:16;;;;;;;4.60;2.70;;;;;;;32.14;44.50;101394.93;109926;1237;61020;-68
2023/09/02 11:03:50;;;;;;;3.60;2.50;;;;;;;32.07;43.95;101396.15;109854;1238;66185;-68
2023/09/02 11:06:18;;;;;;;3.90;2.80;;;;;;;31.93;44.05;101395.08;109938;1238;62459;-71
2023/09/02 11:08:53;;;;;;;6.20;2.90;;;;;;;31.82;44.33;101392.52;109948;1238;58992;-72
2023/09/02 11:11:23;;;;;;;4.50;2.50;;;;;;;31.91;45.02;101390.71;109822;1237;63345;-73
2023/09/02 11:14:07;;;;;;;5.00;2.90;;;;;;;31.96;44.11;101389.34;109801;1241;58375;-74
2023/09/02 11:16:38;;;;;;;;;;;;;;;32.12;43.58;101383.98;109965;1237;58477;-73
2023/09/02 11:19:11;;;;;;;5.00;2.80;;;;;;;32.11;44.04;101372.42;109774;1238;63717;-74
2023/09/02 11:22:03;;;;;;;4.40;2.90;;;;;;;31.83;42.26;101371.20;109724;1237;70106;-73
2023/09/02 11:24:48;;;;;;;4.80;3.10;;;;;;;31.56;43.22;101365.77;109813;1238;71498;-72
2023/09/02 11:27:30;;;;;;;3.70;2.80;;;;;;;31.70;42.69;101373.38;109914;1237;63684;-74